createdAt,value
2022-08-23T00:00:28.286Z,100286.69
2022-08-23T00:04:35.410Z,100289.41
2022-08-23T00:08:37.934Z,100288.63
2022-08-23T00:12:49.882Z,100290.41
2022-08-23T00:16:52.809Z,100281.78
2022-08-23T00:20:54.394Z,100284.44
2022-08-23T00:24:56.060Z,100283.66
2022-08-23T00:28:57.621Z,100275.88
2022-08-23T00:32:59.301Z,100280.31
2022-08-23T00:37:01.876Z,100283.00
2022-08-23T00:41:03.768Z,100281.34
2022-08-23T00:45:25.596Z,100275.31
2022-08-23T00:49:28.286Z,100273.69
2022-08-23T00:53:38.028Z,100276.31
2022-08-23T00:57:40.951Z,100277.22
2022-08-23T01:01:48.545Z,100271.22
2022-08-23T01:06:15.750Z,100272.13
2022-08-23T01:10:35.727Z,100269.56
2022-08-23T01:14:57.261Z,100274.88
2022-08-23T01:19:00.358Z,100279.28
2022-08-23T01:23:14.179Z,100287.16
2022-08-23T01:27:15.997Z,100292.44
2022-08-23T01:31:18.579Z,100291.59
2022-08-23T01:35:31.042Z,100290.78
2022-08-23T01:39:32.840Z,100296.09
2022-08-23T01:43:34.423Z,100294.41
2022-08-23T01:47:36.083Z,100294.41
2022-08-23T01:51:38.786Z,100295.31
2022-08-23T01:55:41.995Z,100294.41
2022-08-23T01:59:44.038Z,100294.41
2022-08-23T02:03:46.017Z,100295.28
2022-08-23T02:07:51.274Z,100298.78
2022-08-23T02:11:54.746Z,100291.03
2022-08-23T02:15:58.358Z,100311.13
2022-08-23T02:20:03.073Z,100313.75
2022-08-23T02:24:07.955Z,100318.09
2022-08-23T02:28:09.741Z,100313.84
2022-08-23T02:32:15.743Z,100319.94
2022-08-23T02:40:24.554Z,100329.59
2022-08-23T02:44:26.500Z,100329.63
2022-08-23T02:48:32.387Z,100332.25
2022-08-23T02:52:39.346Z,100328.81
2022-08-23T02:56:40.949Z,100327.13
2022-08-23T03:00:48.040Z,100326.34
2022-08-23T03:04:49.721Z,100335.09
2022-08-23T03:08:51.381Z,100332.56
2022-08-23T03:12:53.266Z,100326.56
2022-08-23T03:16:58.174Z,100337.03
2022-08-23T03:21:00.043Z,100342.28
2022-08-23T03:25:01.775Z,100348.34
2022-08-23T03:29:15.073Z,100341.47
2022-08-23T03:33:47.133Z,100351.03
2022-08-23T03:37:52.332Z,100347.63
2022-08-23T03:41:57.145Z,100349.44
2022-08-23T03:46:01.089Z,100347.72
2022-08-23T03:50:04.066Z,100351.25
2022-08-23T03:54:07.523Z,100359.13
2022-08-23T03:58:10.972Z,100358.31
2022-08-23T04:02:13.549Z,100373.94
2022-08-23T04:06:17.083Z,100373.94
2022-08-23T04:10:19.118Z,100380.91
2022-08-23T04:14:24.818Z,100389.63
2022-08-23T04:18:26.486Z,100388.78
2022-08-23T04:22:28.174Z,100395.81
2022-08-23T04:26:30.339Z,100393.28
2022-08-23T04:30:33.320Z,100399.41
2022-08-23T04:34:36.822Z,100402.91
2022-08-23T04:38:38.754Z,100407.25
2022-08-23T04:42:42.269Z,100409.88
2022-08-23T04:46:44.159Z,100424.66
2022-08-23T04:50:46.822Z,100425.53
2022-08-23T04:54:52.487Z,100431.63
2022-08-23T04:59:04.982Z,100426.44
2022-08-23T05:03:07.923Z,100435.97
2022-08-23T05:07:09.554Z,100439.47
2022-08-23T05:11:11.694Z,100447.25
2022-08-23T05:15:15.940Z,100454.19
2022-08-23T05:19:21.685Z,100452.44
2022-08-23T05:23:31.633Z,100452.41
2022-08-23T05:27:47.487Z,100467.16
2022-08-23T05:31:49.729Z,100468.84
2022-08-23T05:35:53.109Z,100474.91
2022-08-23T05:39:55.128Z,100471.44
2022-08-23T05:43:56.810Z,100472.31
2022-08-23T05:47:58.426Z,100474.94
2022-08-23T05:52:13.098Z,100474.91
2022-08-23T05:56:24.119Z,100482.72
2022-08-23T06:00:30.777Z,100480.06
2022-08-23T06:04:42.008Z,100489.59
2022-08-23T06:08:48.547Z,100494.81
2022-08-23T06:12:50.424Z,100491.31
2022-08-23T06:16:55.777Z,100494.78
2022-08-23T06:21:03.323Z,100497.34
2022-08-23T06:25:14.951Z,100501.66
2022-08-23T06:29:30.200Z,100504.25
2022-08-23T06:33:57.631Z,100503.38
2022-08-23T06:38:12.765Z,100512.06
2022-08-23T06:42:41.746Z,100512.88
2022-08-23T06:46:44.715Z,100512.88
2022-08-23T06:50:47.887Z,100518.88
2022-08-23T06:55:05.144Z,100511.03
2022-08-23T06:59:16.036Z,100517.84
2022-08-23T07:03:46.942Z,100509.97
2022-08-23T07:08:07.473Z,100510.81
2022-08-23T07:12:10.948Z,100518.53
2022-08-23T07:16:19.963Z,100519.41
2022-08-23T07:20:21.689Z,100522.81
2022-08-23T07:24:23.662Z,100524.47
2022-08-23T07:28:29.865Z,100530.50
2022-08-23T07:32:31.712Z,100529.56
2022-08-23T07:36:41.017Z,100534.66
2022-08-23T07:40:43.261Z,100522.38
2022-08-23T07:44:47.444Z,100528.38
2022-08-23T07:48:54.350Z,100522.22
2022-08-23T07:53:31.818Z,100536.88
2022-08-23T07:57:39.832Z,100530.66
2022-08-23T08:02:06.651Z,100537.53
2022-08-23T08:06:12.803Z,100540.84
2022-08-23T08:10:15.357Z,100532.00
2022-08-23T08:14:17.575Z,100534.41
2022-08-23T08:18:31.960Z,100535.19
2022-08-23T08:23:00.557Z,100542.00
2022-08-23T08:27:02.326Z,100543.53
2022-08-23T08:31:05.176Z,100548.66
2022-08-23T08:35:08.659Z,100546.94
2022-08-23T08:39:16.749Z,100547.66
2022-08-23T08:43:27.698Z,100543.91
2022-08-23T08:47:56.246Z,100551.53
2022-08-23T08:52:22.138Z,100541.72
2022-08-23T08:56:33.017Z,100549.28
2022-08-23T09:00:58.721Z,100544.63
2022-08-23T09:05:05.784Z,100549.72
2022-08-23T09:09:30.579Z,100546.97
2022-08-23T09:14:14.801Z,100548.44
2022-08-23T09:18:17.037Z,100548.06
2022-08-23T09:22:30.276Z,100545.19
2022-08-23T09:26:32.139Z,100541.38
2022-08-23T09:30:53.097Z,100540.16
2022-08-23T09:35:24.506Z,100543.38
2022-08-23T09:39:36.471Z,100539.72
2022-08-23T09:43:48.305Z,100542.97
2022-08-23T09:47:51.873Z,100536.50
2022-08-23T09:51:59.076Z,100538.88
2022-08-23T09:56:13.355Z,100521.06
2022-08-23T10:00:16.658Z,100528.72
2022-08-23T10:04:47.103Z,100525.69
2022-08-23T10:08:56.403Z,100510.63
2022-08-23T10:13:00.772Z,100513.03
2022-08-23T10:17:13.975Z,100518.97
2022-08-23T10:21:24.200Z,100509.97
2022-08-23T10:25:30.691Z,100514.94
2022-08-23T10:29:47.517Z,100505.78
2022-08-23T10:34:06.475Z,100495.84
2022-08-23T10:38:29.540Z,100498.16
2022-08-23T10:43:05.983Z,100495.25
2022-08-23T10:47:30.785Z,100488.03
2022-08-23T10:51:45.332Z,100483.47
2022-08-23T10:56:04.343Z,100480.41
2022-08-23T11:00:19.648Z,100482.56
2022-08-23T11:04:48.439Z,100475.16
2022-08-23T11:09:18.745Z,100468.66
2022-08-23T11:13:27.856Z,100462.13
2022-08-23T11:17:56.082Z,100464.34
2022-08-23T11:22:22.661Z,100465.72
2022-08-23T11:26:27.739Z,100460.97
2022-08-23T11:30:32.792Z,100459.13
2022-08-23T11:34:54.188Z,100453.50
2022-08-23T11:38:55.872Z,100458.63
2022-08-23T11:43:05.398Z,100455.53
2022-08-23T11:47:10.304Z,100447.16
2022-08-23T11:51:21.161Z,100454.53
2022-08-23T11:55:54.244Z,100442.78
2022-08-23T12:00:17.542Z,100444.16
2022-08-23T12:04:50.010Z,100447.13
2022-08-23T12:09:02.022Z,100439.66
2022-08-23T12:13:32.476Z,100442.59
2022-08-23T12:17:40.488Z,100435.16
2022-08-23T12:21:50.425Z,100431.91
2022-08-23T12:26:26.156Z,100422.53
2022-08-23T12:30:39.801Z,100424.72
2022-08-23T12:34:49.811Z,100423.94
2022-08-23T12:39:25.296Z,100425.69
2022-08-23T12:43:30.309Z,100399.47
2022-08-23T12:47:32.827Z,100407.50
2022-08-23T12:51:52.748Z,100400.94
2022-08-23T12:56:01.598Z,100406.34
2022-08-23T13:00:17.324Z,100392.75
2022-08-23T13:04:20.220Z,100393.59
2022-08-23T13:08:33.585Z,100400.50
2022-08-23T13:12:37.507Z,100388.31
2022-08-23T13:16:44.305Z,100384.66
2022-08-23T13:20:45.925Z,100390.94
2022-08-23T13:25:01.291Z,100386.25
2022-08-23T13:29:17.916Z,100384.28
2022-08-23T13:33:20.731Z,100373.03
2022-08-23T13:37:31.149Z,100378.19
2022-08-23T13:41:39.045Z,100379.34
2022-08-23T13:45:48.316Z,100365.41
2022-08-23T13:49:51.423Z,100368.84
2022-08-23T13:53:54.610Z,100360.03
2022-08-23T13:57:57.140Z,100364.16
2022-08-23T14:02:08.420Z,100361.47
2022-08-23T14:06:11.049Z,100356.66
2022-08-23T14:10:13.910Z,100364.72
2022-08-23T14:14:15.612Z,100356.97
2022-08-23T14:18:17.734Z,100353.88
2022-08-23T14:22:19.696Z,100349.91
2022-08-23T14:26:23.201Z,100345.91
2022-08-23T14:30:29.323Z,100352.06
2022-08-23T14:34:31.540Z,100337.13
2022-08-23T14:38:33.194Z,100346.28
2022-08-23T14:42:35.103Z,100345.97
2022-08-23T14:46:36.761Z,100337.19
2022-08-23T14:50:41.178Z,100331.66
2022-08-23T14:54:42.959Z,100338.41
2022-08-23T14:58:44.790Z,100341.75
2022-08-23T15:02:48.723Z,100334.50
2022-08-23T15:07:16.152Z,100334.94
2022-08-23T15:15:37.361Z,100337.41
2022-08-23T15:19:39.828Z,100329.97
2022-08-23T15:23:43.333Z,100332.25
2022-08-23T15:27:46.585Z,100335.56
2022-08-23T15:31:48.277Z,100336.94
2022-08-23T15:35:52.094Z,100336.31
2022-08-23T15:39:54.042Z,100331.63
2022-08-23T15:43:55.703Z,100333.56
2022-08-23T15:47:59.054Z,100329.78
2022-08-23T15:52:00.726Z,100324.78
2022-08-23T15:56:05.791Z,100321.38
2022-08-23T16:00:08.317Z,100324.63
2022-08-23T16:04:13.903Z,100320.28
2022-08-23T16:08:24.700Z,100315.63
2022-08-23T16:12:29.893Z,100318.34
2022-08-23T16:16:36.610Z,100309.47
2022-08-23T16:20:38.607Z,100317.72
2022-08-23T16:24:40.458Z,100310.09
2022-08-23T16:28:47.751Z,100313.41
2022-08-23T16:32:49.318Z,100304.69
2022-08-23T16:36:56.429Z,100305.19
2022-08-23T16:41:00.056Z,100300.25
2022-08-23T16:45:02.106Z,100315.84
2022-08-23T16:49:03.803Z,100316.94
2022-08-23T16:53:07.389Z,100319.63
2022-08-23T16:57:09.755Z,100319.00
2022-08-23T17:01:13.932Z,100327.56
2022-08-23T17:05:18.324Z,100317.97
2022-08-23T17:09:25.394Z,100329.78
2022-08-23T17:13:27.198Z,100326.56
2022-08-23T17:17:28.785Z,100330.75
2022-08-23T17:21:30.435Z,100329.38
2022-08-23T17:25:32.108Z,100331.44
2022-08-23T17:29:37.507Z,100319.63
2022-08-23T17:33:39.915Z,100337.88
2022-08-23T17:37:41.894Z,100337.53
2022-08-23T17:41:45.496Z,100350.41
2022-08-23T17:45:50.700Z,100346.66
2022-08-23T17:49:52.461Z,100350.75
2022-08-23T17:53:54.089Z,100355.47
2022-08-23T17:57:58.181Z,100357.50
2022-08-23T18:02:07.668Z,100363.84
2022-08-23T18:06:16.917Z,100377.88
2022-08-23T18:10:19.152Z,100370.19
2022-08-23T18:14:20.739Z,100381.47
2022-08-23T18:18:22.978Z,100383.03
2022-08-23T18:22:25.026Z,100379.34
2022-08-23T18:26:45.714Z,100390.50
2022-08-23T18:30:51.627Z,100394.75
2022-08-23T18:34:53.360Z,100396.16
2022-08-23T18:38:55.345Z,100403.56
2022-08-23T18:42:57.233Z,100406.72
2022-08-23T18:47:00.595Z,100415.09
2022-08-23T18:51:04.118Z,100422.56
2022-08-23T18:55:06.845Z,100427.38
2022-08-23T18:59:08.498Z,100431.22
2022-08-23T19:03:11.091Z,100439.47
2022-08-23T19:07:12.957Z,100446.81
2022-08-23T19:11:15.885Z,100453.19
2022-08-23T19:15:18.469Z,100454.44
2022-08-23T19:19:20.085Z,100451.31
2022-08-23T19:23:22.012Z,100465.47
2022-08-23T19:27:23.707Z,100459.59
2022-08-23T19:31:26.747Z,100467.81
2022-08-23T19:35:31.287Z,100456.69
2022-08-23T19:39:32.929Z,100456.06
2022-08-23T19:43:35.433Z,100461.56
2022-08-23T19:47:37.453Z,100465.34
2022-08-23T19:51:39.791Z,100470.06
2022-08-23T19:55:43.530Z,100473.72
2022-08-23T19:59:46.383Z,100485.38
2022-08-23T20:03:48.024Z,100488.56
2022-08-23T20:07:49.605Z,100494.19
2022-08-23T20:11:55.164Z,100484.78
2022-08-23T20:15:56.805Z,100495.41
2022-08-23T20:19:58.622Z,100497.22
2022-08-23T20:24:06.319Z,100495.59
2022-08-23T20:28:08.335Z,100504.50
2022-08-23T20:32:10.520Z,100502.91
2022-08-23T20:36:12.956Z,100502.25
2022-08-23T20:40:14.944Z,100501.69
2022-08-23T20:44:16.900Z,100500.41
2022-08-23T20:48:18.859Z,100507.50
2022-08-23T20:52:20.538Z,100508.44
2022-08-23T20:56:23.337Z,100509.38
2022-08-23T21:00:25.012Z,100511.16
2022-08-23T21:04:29.957Z,100526.00
2022-08-23T21:08:32.865Z,100520.81
2022-08-23T21:12:36.515Z,100531.31
2022-08-23T21:16:38.472Z,100529.56
2022-08-23T21:20:40.042Z,100534.03
2022-08-23T21:24:42.017Z,100524.44
2022-08-23T21:28:43.773Z,100535.03
2022-08-23T21:32:45.546Z,100531.59
2022-08-23T21:36:47.207Z,100538.66
2022-08-23T21:40:59.376Z,100541.34
2022-08-23T21:45:00.936Z,100536.16
2022-08-23T21:49:05.678Z,100541.41
2022-08-23T21:53:07.575Z,100536.25
2022-08-23T21:57:09.250Z,100538.09
2022-08-23T22:01:11.009Z,100533.81
2022-08-23T22:05:12.559Z,100528.69
2022-08-23T22:09:18.525Z,100528.81
2022-08-23T22:13:20.131Z,100528.91
2022-08-23T22:17:21.787Z,100528.09
2022-08-23T22:21:23.604Z,100525.56
2022-08-23T22:25:25.529Z,100527.41
2022-08-23T22:29:27.127Z,100531.84
2022-08-23T22:33:28.865Z,100531.03
2022-08-23T22:37:30.426Z,100532.88
2022-08-23T22:41:31.977Z,100538.19
2022-08-23T22:45:33.529Z,100536.50
2022-08-23T22:49:35.187Z,100535.69
2022-08-23T22:53:39.216Z,100536.69
2022-08-23T22:57:40.809Z,100534.13
2022-08-23T23:01:48.478Z,100540.31
2022-08-23T23:05:50.954Z,100531.66
2022-08-23T23:09:52.561Z,100535.19
2022-08-23T23:13:54.717Z,100535.28
2022-08-23T23:17:56.290Z,100537.97
2022-08-23T23:21:58.730Z,100536.34
2022-08-23T23:26:00.750Z,100539.94
2022-08-23T23:30:02.346Z,100543.53
2022-08-23T23:34:04.261Z,100552.41
2022-08-23T23:38:07.083Z,100549.88
2022-08-23T23:42:08.709Z,100545.69
2022-08-23T23:46:13.545Z,100540.50
2022-08-23T23:50:15.980Z,100549.34
2022-08-23T23:54:17.564Z,100544.22
2022-08-23T23:58:19.198Z,100544.41
